sensor_id;sensor_type;location;lat;lon;timestamp;pressure;altitude;pressure_sealevel;temperature;humidity
4576;BME280;2300;51.874;8.430;2023-04-25T00:02:22;99977.59;;;6.28;86.03
4576;BME280;2300;51.874;8.430;2023-04-25T00:04:50;99986.44;;;6.48;85.58
4576;BME280;2300;51.874;8.430;2023-04-25T00:07:17;99952.56;;;6.12;85.84
4576;BME280;2300;51.874;8.430;2023-04-25T00:09:45;99985.13;;;6.32;86.07
4576;BME280;2300;51.874;8.430;2023-04-25T00:12:11;99984.69;;;6.35;86.10
4576;BME280;2300;51.874;8.430;2023-04-25T00:14:37;99994.94;;;6.40;86.37
4576;BME280;2300;51.874;8.430;2023-04-25T00:17:05;99993.88;;;6.41;86.22
4576;BME280;2300;51.874;8.430;2023-04-25T00:19:31;99992.19;;;6.40;86.29
4576;BME280;2300;51.874;8.430;2023-04-25T00:21:59;99992.19;;;6.40;86.88
4576;BME280;2300;51.874;8.430;2023-04-25T00:24:26;99995.94;;;6.45;87.21
4576;BME280;2300;51.874;8.430;2023-04-25T00:26:54;99988.25;;;6.36;87.13
4576;BME280;2300;51.874;8.430;2023-04-25T00:29:20;99985.22;;;6.44;87.24
4576;BME280;2300;51.874;8.430;2023-04-25T00:31:47;99976.00;;;6.45;87.50
4576;BME280;2300;51.874;8.430;2023-04-25T00:34:13;100002.72;;;6.36;87.70
4576;BME280;2300;51.874;8.430;2023-04-25T00:36:39;99986.19;;;6.31;87.98
4576;BME280;2300;51.874;8.430;2023-04-25T00:39:06;99991.31;;;6.46;87.57
4576;BME280;2300;51.874;8.430;2023-04-25T00:41:32;99987.41;;;6.35;88.48
4576;BME280;2300;51.874;8.430;2023-04-25T00:44:00;99994.94;;;6.40;88.79
4576;BME280;2300;51.874;8.430;2023-04-25T00:46:28;99985.06;;;6.39;88.49
4576;BME280;2300;51.874;8.430;2023-04-25T00:48:55;99983.81;;;6.41;88.55
4576;BME280;2300;51.874;8.430;2023-04-25T00:51:21;99948.94;;;6.18;88.93
4576;BME280;2300;51.874;8.430;2023-04-25T00:53:49;99983.13;;;6.46;88.38
4576;BME280;2300;51.874;8.430;2023-04-25T00:56:16;99986.81;;;6.58;88.43
4576;BME280;2300;51.874;8.430;2023-04-25T00:58:42;99972.94;;;6.35;88.74
4576;BME280;2300;51.874;8.430;2023-04-25T01:01:10;99972.94;;;6.35;89.29
4576;BME280;2300;51.874;8.430;2023-04-25T01:03:38;99980.25;;;6.41;89.50
4576;BME280;2300;51.874;8.430;2023-04-25T01:06:07;99982.50;;;6.44;89.74
4576;BME280;2300;51.874;8.430;2023-04-25T01:08:34;99977.34;;;6.36;89.63
4576;BME280;2300;51.874;8.430;2023-04-25T01:11:01;99970.88;;;6.30;89.97
4576;BME280;2300;51.874;8.430;2023-04-25T01:13:27;99975.84;;;6.40;89.63
4576;BME280;2300;51.874;8.430;2023-04-25T01:15:54;99977.59;;;6.28;90.44
4576;BME280;2300;51.874;8.430;2023-04-25T01:18:22;99977.66;;;6.21;91.15
4576;BME280;2300;51.874;8.430;2023-04-25T01:20:50;99981.56;;;6.32;91.12
4576;BME280;2300;51.874;8.430;2023-04-25T01:23:19;99977.19;;;6.31;91.77
4576;BME280;2300;51.874;8.430;2023-04-25T01:25:47;99979.91;;;6.31;92.36
4576;BME280;2300;51.874;8.430;2023-04-25T01:28:14;99980.31;;;6.28;92.64
4576;BME280;2300;51.874;8.430;2023-04-25T01:30:40;99974.69;;;6.23;92.48
4576;BME280;2300;51.874;8.430;2023-04-25T01:33:07;99975.81;;;6.15;93.60
4576;BME280;2300;51.874;8.430;2023-04-25T01:35:34;99984.66;;;6.10;93.65
4576;BME280;2300;51.874;8.430;2023-04-25T01:38:01;99981.28;;;6.15;94.79
4576;BME280;2300;51.874;8.430;2023-04-25T01:40:29;99981.84;;;6.24;94.67
4576;BME280;2300;51.874;8.430;2023-04-25T01:42:56;99967.84;;;6.13;94.89
4576;BME280;2300;51.874;8.430;2023-04-25T01:45:22;99974.31;;;6.19;94.41
4576;BME280;2300;51.874;8.430;2023-04-25T01:47:49;99980.44;;;6.14;94.79
4576;BME280;2300;51.874;8.430;2023-04-25T01:50:16;99987.78;;;6.14;96.39
4576;BME280;2300;51.874;8.430;2023-04-25T01:52:43;99989.69;;;6.07;96.44
4576;BME280;2300;51.874;8.430;2023-04-25T01:55:10;99987.38;;;6.10;96.71
4576;BME280;2300;51.874;8.430;2023-04-25T01:57:38;99994.44;;;6.18;96.82
4576;BME280;2300;51.874;8.430;2023-04-25T02:00:06;99985.50;;;6.11;96.57
4576;BME280;2300;51.874;8.430;2023-04-25T02:02:34;99992.03;;;6.03;97.21
4576;BME280;2300;51.874;8.430;2023-04-25T02:05:00;99940.91;;;5.67;98.04
4576;BME280;2300;51.874;8.430;2023-04-25T02:07:27;100000.19;;;6.10;98.33
4576;BME280;2300;51.874;8.430;2023-04-25T02:09:53;99999.88;;;6.25;98.16
4576;BME280;2300;51.874;8.430;2023-04-25T02:12:20;99969.56;;;6.08;97.08
4576;BME280;2300;51.874;8.430;2023-04-25T02:14:47;100007.50;;;6.16;97.79
4576;BME280;2300;51.874;8.430;2023-04-25T02:17:14;100002.94;;;6.03;98.02
4576;BME280;2300;51.874;8.430;2023-04-25T02:19:41;99998.72;;;6.07;98.85
4576;BME280;2300;51.874;8.430;2023-04-25T02:22:07;100003.97;;;6.09;99.28
4576;BME280;2300;51.874;8.430;2023-04-25T02:24:34;100020.47;;;6.21;99.10
4576;BME280;2300;51.874;8.430;2023-04-25T02:27:00;100007.06;;;6.12;98.67
4576;BME280;2300;51.874;8.430;2023-04-25T02:29:27;100004.13;;;6.14;99.67
4576;BME280;2300;51.874;8.430;2023-04-25T02:31:55;100007.56;;;6.03;100.00
4576;BME280;2300;51.874;8.430;2023-04-25T02:34:21;99997.50;;;6.03;100.00
4576;BME280;2300;51.874;8.430;2023-04-25T02:36:48;100001.97;;;5.91;100.00
4576;BME280;2300;51.874;8.430;2023-04-25T02:39:14;100016.72;;;6.15;100.00
4576;BME280;2300;51.874;8.430;2023-04-25T02:41:41;99999.03;;;5.93;100.00
4576;BME280;2300;51.874;8.430;2023-04-25T02:44:07;99992.16;;;5.84;100.00
4576;BME280;2300;51.874;8.430;2023-04-25T02:46:33;100011.41;;;5.95;100.00
4576;BME280;2300;51.874;8.430;2023-04-25T02:49:01;99985.88;;;5.83;100.00
4576;BME280;2300;51.874;8.430;2023-04-25T02:51:27;100006.44;;;5.79;100.00
4576;BME280;2300;51.874;8.430;2023-04-25T02:53:55;100018.72;;;5.95;100.00
4576;BME280;2300;51.874;8.430;2023-04-25T02:59:43;100023.44;;;6.12;100.00
4576;BME280;2300;51.874;8.430;2023-04-25T03:02:10;100010.50;;;6.01;100.00
4576;BME280;2300;51.874;8.430;2023-04-25T03:04:38;100020.34;;;6.02;100.00
4576;BME280;2300;51.874;8.430;2023-04-25T03:07:05;100018.88;;;6.06;100.00
4576;BME280;2300;51.874;8.430;2023-04-25T03:09:31;100023.44;;;6.12;100.00
4576;BME280;2300;51.874;8.430;2023-04-25T03:11:58;100025.97;;;6.07;100.00
4576;BME280;2300;51.874;8.430;2023-04-25T03:14:24;100031.59;;;6.12;100.00
4576;BME280;2300;51.874;8.430;2023-04-25T03:16:51;100026.25;;;5.99;100.00
4576;BME280;2300;51.874;8.430;2023-04-25T03:19:17;100022.28;;;5.95;100.00
4576;BME280;2300;51.874;8.430;2023-04-25T03:21:45;100028.13;;;5.99;100.00
4576;BME280;2300;51.874;8.430;2023-04-25T03:24:11;100032.25;;;6.08;100.00
4576;BME280;2300;51.874;8.430;2023-04-25T03:26:38;100030.19;;;6.03;100.00
4576;BME280;2300;51.874;8.430;2023-04-25T03:29:04;100038.72;;;6.13;100.00
4576;BME280;2300;51.874;8.430;2023-04-25T03:31:31;100030.13;;;6.16;100.00
4576;BME280;2300;51.874;8.430;2023-04-25T03:33:57;100041.44;;;6.20;100.00
4576;BME280;2300;51.874;8.430;2023-04-25T03:36:24;100044.75;;;6.22;100.00
4576;BME280;2300;51.874;8.430;2023-04-25T03:38:52;100049.13;;;6.30;100.00
4576;BME280;2300;51.874;8.430;2023-04-25T03:41:18;100053.91;;;6.34;100.00
4576;BME280;2300;51.874;8.430;2023-04-25T03:43:45;100055.97;;;6.39;100.00
4576;BME280;2300;51.874;8.430;2023-04-25T03:46:11;99978.50;;;5.90;100.00
4576;BME280;2300;51.874;8.430;2023-04-25T03:48:38;100042.25;;;6.21;100.00
4576;BME280;2300;51.874;8.430;2023-04-25T03:51:04;100068.22;;;6.30;100.00
4576;BME280;2300;51.874;8.430;2023-04-25T03:53:31;100070.41;;;6.14;100.00
4576;BME280;2300;51.874;8.430;2023-04-25T03:55:59;100074.16;;;6.20;100.00
4576;BME280;2300;51.874;8.430;2023-04-25T03:58:25;100076.88;;;6.20;100.00
4576;BME280;2300;51.874;8.430;2023-04-25T04:00:52;100066.63;;;6.15;100.00
4576;BME280;2300;51.874;8.430;2023-04-25T04:03:18;100067.03;;;6.12;100.00
4576;BME280;2300;51.874;8.430;2023-04-25T04:05:45;100077.09;;;6.12;100.00
4576;BME280;2300;51.874;8.430;2023-04-25T04:08:12;100082.06;;;6.28;100.00
4576;BME280;2300;51.874;8.430;2023-04-25T04:10:39;100089.22;;;6.23;100.00
4576;BME280;2300;51.874;8.430;2023-04-25T04:13:07;100087.16;;;6.18;100.00
4576;BME280;2300;51.874;8.430;2023-04-25T04:15:33;100075.03;;;6.07;100.00
4576;BME280;2300;51.874;8.430;2023-04-25T04:17:59;100098.09;;;6.11;100.00
4576;BME280;2300;51.874;8.430;2023-04-25T04:20:28;100104.16;;;6.13;100.00
4576;BME280;2300;51.874;8.430;2023-04-25T04:22:54;100100.03;;;5.98;100.00
4576;BME280;2300;51.874;8.430;2023-04-25T04:25:21;100105.69;;;6.03;100.00
4576;BME280;2300;51.874;8.430;2023-04-25T04:27:47;100107.16;;;6.05;100.00
4576;BME280;2300;51.874;8.430;2023-04-25T04:30:18;100107.00;;;5.94;100.00
4576;BME280;2300;51.874;8.430;2023-04-25T04:32:45;100112.84;;;5.97;100.00
4576;BME280;2300;51.874;8.430;2023-04-25T04:35:11;100111.31;;;6.08;100.00
4576;BME280;2300;51.874;8.430;2023-04-25T04:37:38;100118.47;;;6.02;100.00
4576;BME280;2300;51.874;8.430;2023-04-25T04:40:06;100086.06;;;5.81;99.69
4576;BME280;2300;51.874;8.430;2023-04-25T04:42:32;100121.25;;;5.96;99.34
4576;BME280;2300;51.874;8.430;2023-04-25T04:44:59;100121.69;;;5.86;98.84
4576;BME280;2300;51.874;8.430;2023-04-25T04:47:28;100108.97;;;5.73;98.94
4576;BME280;2300;51.874;8.430;2023-04-25T04:49:56;100135.69;;;5.96;98.41
4576;BME280;2300;51.874;8.430;2023-04-25T04:52:22;100133.78;;;6.03;97.84
4576;BME280;2300;51.874;8.430;2023-04-25T04:54:49;100141.31;;;6.01;97.87
4576;BME280;2300;51.874;8.430;2023-04-25T04:57:15;100152.66;;;6.05;97.91
4576;BME280;2300;51.874;8.430;2023-04-25T04:59:42;100135.50;;;5.91;97.52
4576;BME280;2300;51.874;8.430;2023-04-25T05:02:10;100137.81;;;5.94;97.25
4576;BME280;2300;51.874;8.430;2023-04-25T05:04:37;100119.22;;;5.71;97.24
4576;BME280;2300;51.874;8.430;2023-04-25T05:07:04;100127.81;;;5.75;97.39
4576;BME280;2300;51.874;8.430;2023-04-25T05:09:30;100146.19;;;5.93;96.46
4576;BME280;2300;51.874;8.430;2023-04-25T05:11:57;100146.00;;;5.81;97.14
4576;BME280;2300;51.874;8.430;2023-04-25T05:14:23;100156.69;;;5.96;96.21
4576;BME280;2300;51.874;8.430;2023-04-25T05:16:50;100166.97;;;5.87;95.78
4576;BME280;2300;51.874;8.430;2023-04-25T05:19:16;100164.00;;;5.95;95.43
4576;BME280;2300;51.874;8.430;2023-04-25T05:21:44;100170.72;;;5.99;94.74
4576;BME280;2300;51.874;8.430;2023-04-25T05:24:11;100160.66;;;6.00;94.84
4576;BME280;2300;51.874;8.430;2023-04-25T05:26:37;100176.56;;;6.03;93.98
4576;BME280;2300;51.874;8.430;2023-04-25T05:29:04;100178.47;;;5.96;93.76
4576;BME280;2300;51.874;8.430;2023-04-25T05:31:31;100183.69;;;6.04;93.85
4576;BME280;2300;51.874;8.430;2023-04-25T05:33:58;100176.53;;;6.16;93.41
4576;BME280;2300;51.874;8.430;2023-04-25T05:36:24;100182.75;;;6.23;92.96
4576;BME280;2300;51.874;8.430;2023-04-25T05:38:52;100190.09;;;6.29;92.54
4576;BME280;2300;51.874;8.430;2023-04-25T05:41:19;100172.91;;;6.22;93.12
4576;BME280;2300;51.874;8.430;2023-04-25T05:43:45;100194.50;;;6.30;92.50
4576;BME280;2300;51.874;8.430;2023-04-25T05:46:14;100177.13;;;6.18;92.40
4576;BME280;2300;51.874;8.430;2023-04-25T05:48:40;100191.94;;;6.42;92.33
4576;BME280;2300;51.874;8.430;2023-04-25T05:51:07;100197.78;;;6.39;91.96
4576;BME280;2300;51.874;8.430;2023-04-25T05:53:33;100199.34;;;6.66;91.62
4576;BME280;2300;51.874;8.430;2023-04-25T05:56:01;100141.38;;;6.33;92.13
4576;BME280;2300;51.874;8.430;2023-04-25T05:58:28;100203.25;;;6.77;91.16
4576;BME280;2300;51.874;8.430;2023-04-25T06:00:56;100207.25;;;6.74;89.88
4576;BME280;2300;51.874;8.430;2023-04-25T06:03:23;100207.72;;;6.65;89.63
4576;BME280;2300;51.874;8.430;2023-04-25T06:05:49;100200.59;;;6.63;89.90
4576;BME280;2300;51.874;8.430;2023-04-25T06:08:16;100209.78;;;6.82;89.13
4576;BME280;2300;51.874;8.430;2023-04-25T06:10:42;100218.09;;;6.94;88.43
4576;BME280;2300;51.874;8.430;2023-04-25T06:13:10;100190.84;;;6.87;88.00
4576;BME280;2300;51.874;8.430;2023-04-25T06:15:37;100200.06;;;6.93;86.92
4576;BME280;2300;51.874;8.430;2023-04-25T06:18:03;100214.78;;;7.17;86.48
4576;BME280;2300;51.874;8.430;2023-04-25T06:20:30;100238.38;;;7.36;85.57
4576;BME280;2300;51.874;8.430;2023-04-25T06:22:57;100230.06;;;7.24;85.23
4576;BME280;2300;51.874;8.430;2023-04-25T06:25:24;100225.97;;;7.09;85.19
4576;BME280;2300;51.874;8.430;2023-04-25T06:27:51;100241.66;;;7.20;84.63
4576;BME280;2300;51.874;8.430;2023-04-25T06:30:18;100238.94;;;7.20;84.46
4576;BME280;2300;51.874;8.430;2023-04-25T06:32:48;100246.88;;;7.21;83.84
4576;BME280;2300;51.874;8.430;2023-04-25T06:35:15;100207.81;;;7.21;83.08
4576;BME280;2300;51.874;8.430;2023-04-25T06:37:41;100232.28;;;7.34;82.64
4576;BME280;2300;51.874;8.430;2023-04-25T06:40:08;100223.75;;;7.24;83.10
4576;BME280;2300;51.874;8.430;2023-04-25T06:42:35;100226.53;;;7.42;83.16
4576;BME280;2300;51.874;8.430;2023-04-25T06:45:02;100250.69;;;7.70;83.29
4576;BME280;2300;51.874;8.430;2023-04-25T06:47:30;100236.34;;;7.74;82.30
4576;BME280;2300;51.874;8.430;2023-04-25T06:49:56;100248.41;;;7.67;79.60
4576;BME280;2300;51.874;8.430;2023-04-25T06:52:23;100260.72;;;7.76;80.21
4576;BME280;2300;51.874;8.430;2023-04-25T06:54:49;100238.25;;;7.49;80.00
4576;BME280;2300;51.874;8.430;2023-04-25T06:57:16;100264.75;;;7.73;80.31
4576;BME280;2300;51.874;8.430;2023-04-25T06:59:42;100269.03;;;7.63;81.50
4576;BME280;2300;51.874;8.430;2023-04-25T07:02:09;100272.09;;;7.48;80.02
4576;BME280;2300;51.874;8.430;2023-04-25T07:04:37;100268.31;;;7.49;78.95
4576;BME280;2300;51.874;8.430;2023-04-25T07:07:03;100273.50;;;7.57;79.19
4576;BME280;2300;51.874;8.430;2023-04-25T07:09:29;100292.41;;;7.83;79.14
4576;BME280;2300;51.874;8.430;2023-04-25T07:11:59;100271.00;;;7.80;78.23
4576;BME280;2300;51.874;8.430;2023-04-25T07:14:26;100276.03;;;8.02;77.78
4576;BME280;2300;51.874;8.430;2023-04-25T07:16:52;100283.31;;;7.89;77.81
4576;BME280;2300;51.874;8.430;2023-04-25T07:19:22;100283.03;;;7.98;77.89
4576;BME280;2300;51.874;8.430;2023-04-25T07:21:53;100263.44;;;8.01;76.13
4576;BME280;2300;51.874;8.430;2023-04-25T07:24:20;100290.78;;;8.19;76.81
4576;BME280;2300;51.874;8.430;2023-04-25T07:26:46;100286.47;;;8.11;76.71
4576;BME280;2300;51.874;8.430;2023-04-25T07:29:13;100218.91;;;7.75;75.99
4576;BME280;2300;51.874;8.430;2023-04-25T07:31:40;100312.34;;;8.09;74.19
4576;BME280;2300;51.874;8.430;2023-04-25T07:34:06;100292.88;;;7.99;75.77
4576;BME280;2300;51.874;8.430;2023-04-25T07:36:33;100294.75;;;8.23;75.04
4576;BME280;2300;51.874;8.430;2023-04-25T07:39:01;100302.22;;;8.34;75.49
4576;BME280;2300;51.874;8.430;2023-04-25T07:41:27;100266.84;;;7.96;74.59
4576;BME280;2300;51.874;8.430;2023-04-25T07:43:54;100301.44;;;8.27;73.60
4576;BME280;2300;51.874;8.430;2023-04-25T07:46:20;100308.00;;;8.44;72.84
4576;BME280;2300;51.874;8.430;2023-04-25T07:48:46;100314.63;;;8.55;72.90
4576;BME280;2300;51.874;8.430;2023-04-25T07:51:13;100314.91;;;8.47;71.13
4576;BME280;2300;51.874;8.430;2023-04-25T07:53:39;100313.91;;;8.41;72.35
4576;BME280;2300;51.874;8.430;2023-04-25T07:56:07;100319.28;;;8.72;73.17
4576;BME280;2300;51.874;8.430;2023-04-25T07:58:34;100321.75;;;8.56;71.80
4576;BME280;2300;51.874;8.430;2023-04-25T08:01:00;100318.31;;;8.60;70.18
4576;BME280;2300;51.874;8.430;2023-04-25T08:03:27;100292.31;;;8.51;71.09
4576;BME280;2300;51.874;8.430;2023-04-25T08:05:53;100325.38;;;8.75;69.63
4576;BME280;2300;51.874;8.430;2023-04-25T08:08:20;100289.75;;;8.38;69.69
4576;BME280;2300;51.874;8.430;2023-04-25T08:10:47;100329.72;;;8.57;68.40
4576;BME280;2300;51.874;8.430;2023-04-25T08:13:15;100340.22;;;8.60;67.98
4576;BME280;2300;51.874;8.430;2023-04-25T08:15:42;100346.34;;;8.81;67.22
4576;BME280;2300;51.874;8.430;2023-04-25T08:18:08;100349.25;;;8.86;67.70
4576;BME280;2300;51.874;8.430;2023-04-25T08:20:35;100350.56;;;9.13;67.12
4576;BME280;2300;51.874;8.430;2023-04-25T08:23:01;100354.06;;;9.02;66.99
4576;BME280;2300;51.874;8.430;2023-04-25T08:25:28;100357.69;;;9.32;68.31
4576;BME280;2300;51.874;8.430;2023-04-25T08:27:54;100349.25;;;8.86;66.58
4576;BME280;2300;51.874;8.430;2023-04-25T08:30:22;100362.25;;;9.20;66.21
4576;BME280;2300;51.874;8.430;2023-04-25T08:32:49;100362.88;;;9.22;65.57
4576;BME280;2300;51.874;8.430;2023-04-25T08:35:15;100353.25;;;9.31;66.19
4576;BME280;2300;51.874;8.430;2023-04-25T08:37:42;100371.94;;;9.52;66.71
4576;BME280;2300;51.874;8.430;2023-04-25T08:40:11;100350.47;;;9.49;64.48
4576;BME280;2300;51.874;8.430;2023-04-25T08:42:41;100358.28;;;9.76;64.02
4576;BME280;2300;51.874;8.430;2023-04-25T08:45:08;100371.78;;;9.89;62.34
4576;BME280;2300;51.874;8.430;2023-04-25T08:47:37;100381.00;;;9.94;61.30
4576;BME280;2300;51.874;8.430;2023-04-25T08:50:05;100390.28;;;9.93;63.04
4576;BME280;2300;51.874;8.430;2023-04-25T08:52:43;100385.88;;;9.92;60.25
4576;BME280;2300;51.874;8.430;2023-04-25T08:55:12;100372.53;;;9.54;62.38
4576;BME280;2300;51.874;8.430;2023-04-25T08:57:39;100395.69;;;9.58;62.64
4576;BME280;2300;51.874;8.430;2023-04-25T09:00:08;100406.44;;;9.72;63.11
4576;BME280;2300;51.874;8.430;2023-04-25T09:02:37;100406.31;;;9.67;62.25
4576;BME280;2300;51.874;8.430;2023-04-25T09:05:04;100394.31;;;9.49;62.80
4576;BME280;2300;51.874;8.430;2023-04-25T09:07:32;100407.72;;;9.57;63.07
4576;BME280;2300;51.874;8.430;2023-04-25T09:09:58;100413.00;;;9.71;59.75
4576;BME280;2300;51.874;8.430;2023-04-25T09:12:28;100419.03;;;10.02;62.48
4576;BME280;2300;51.874;8.430;2023-04-25T09:15:04;100415.66;;;10.54;61.31
4576;BME280;2300;51.874;8.430;2023-04-25T09:17:31;100426.38;;;10.78;60.13
4576;BME280;2300;51.874;8.430;2023-04-25T09:20:07;100425.56;;;10.31;58.32
4576;BME280;2300;51.874;8.430;2023-04-25T09:22:35;100418.81;;;10.04;59.33
4576;BME280;2300;51.874;8.430;2023-04-25T09:25:03;100421.75;;;10.32;61.11
4576;BME280;2300;51.874;8.430;2023-04-25T09:27:30;100420.44;;;10.81;61.71
4576;BME280;2300;51.874;8.430;2023-04-25T09:29:57;100440.72;;;10.92;60.13
4576;BME280;2300;51.874;8.430;2023-04-25T09:32:24;100429.13;;;11.02;59.99
4576;BME280;2300;51.874;8.430;2023-04-25T09:34:52;100443.94;;;11.41;60.01
4576;BME280;2300;51.874;8.430;2023-04-25T09:37:21;100436.72;;;11.35;55.32
4576;BME280;2300;51.874;8.430;2023-04-25T09:39:49;100431.75;;;11.08;57.22
4576;BME280;2300;51.874;8.430;2023-04-25T09:42:16;100410.34;;;10.99;58.76
4576;BME280;2300;51.874;8.430;2023-04-25T09:44:44;100441.91;;;11.48;58.01
4576;BME280;2300;51.874;8.430;2023-04-25T09:47:11;100444.78;;;11.41;54.99
4576;BME280;2300;51.874;8.430;2023-04-25T09:49:40;100416.66;;;11.51;54.94
4576;BME280;2300;51.874;8.430;2023-04-25T09:52:08;100430.56;;;11.84;54.15
4576;BME280;2300;51.874;8.430;2023-04-25T09:54:36;100434.59;;;12.60;56.97
4576;BME280;2300;51.874;8.430;2023-04-25T09:57:10;100428.59;;;12.30;53.86
4576;BME280;2300;51.874;8.430;2023-04-25T09:59:39;100430.59;;;11.61;53.57
4576;BME280;2300;51.874;8.430;2023-04-25T10:02:07;100432.53;;;11.20;54.41
4576;BME280;2300;51.874;8.430;2023-04-25T10:04:35;100434.06;;;11.40;54.63
4576;BME280;2300;51.874;8.430;2023-04-25T10:07:03;100439.91;;;10.92;55.31
4576;BME280;2300;51.874;8.430;2023-04-25T10:09:32;100439.44;;;10.83;54.93
4576;BME280;2300;51.874;8.430;2023-04-25T10:12:00;100434.28;;;10.40;54.71
4576;BME280;2300;51.874;8.430;2023-04-25T10:14:29;100466.28;;;10.16;56.42
4576;BME280;2300;51.874;8.430;2023-04-25T10:16:57;100440.63;;;10.11;58.28
4576;BME280;2300;51.874;8.430;2023-04-25T10:19:24;100439.84;;;9.80;56.66
4576;BME280;2300;51.874;8.430;2023-04-25T10:21:53;100442.53;;;9.39;55.76
4576;BME280;2300;51.874;8.430;2023-04-25T10:24:22;100448.97;;;9.63;56.58
4576;BME280;2300;51.874;8.430;2023-04-25T10:26:49;100455.19;;;9.70;57.09
4576;BME280;2300;51.874;8.430;2023-04-25T10:29:23;100461.91;;;9.74;57.47
4576;BME280;2300;51.874;8.430;2023-04-25T10:31:50;100463.50;;;9.93;57.23
4576;BME280;2300;51.874;8.430;2023-04-25T10:34:17;100467.44;;;10.27;57.18
4576;BME280;2300;51.874;8.430;2023-04-25T10:36:49;100467.81;;;10.54;58.17
4576;BME280;2300;51.874;8.430;2023-04-25T10:39:22;100456.28;;;10.52;57.30
4576;BME280;2300;51.874;8.430;2023-04-25T10:41:53;100472.84;;;10.80;56.66
4576;BME280;2300;51.874;8.430;2023-04-25T10:44:20;100461.63;;;10.58;55.37
4576;BME280;2300;51.874;8.430;2023-04-25T10:46:48;100468.31;;;10.51;56.58
4576;BME280;2300;51.874;8.430;2023-04-25T10:49:29;100466.03;;;10.48;57.35
4576;BME280;2300;51.874;8.430;2023-04-25T10:52:15;100460.16;;;10.32;58.04
4576;BME280;2300;51.874;8.430;2023-04-25T10:54:42;100463.06;;;10.61;59.00
4576;BME280;2300;51.874;8.430;2023-04-25T10:57:37;100464.78;;;11.25;60.08
4576;BME280;2300;51.874;8.430;2023-04-25T11:00:10;100436.38;;;11.59;58.58
4576;BME280;2300;51.874;8.430;2023-04-25T11:02:40;100470.63;;;12.25;56.74
4576;BME280;2300;51.874;8.430;2023-04-25T11:05:09;100424.41;;;12.10;55.17
4576;BME280;2300;51.874;8.430;2023-04-25T11:07:45;100459.78;;;12.02;54.25
4576;BME280;2300;51.874;8.430;2023-04-25T11:10:15;100460.09;;;11.49;54.30
4576;BME280;2300;51.874;8.430;2023-04-25T11:12:41;100444.56;;;11.43;54.86
4576;BME280;2300;51.874;8.430;2023-04-25T11:15:08;100460.13;;;11.25;55.60
4576;BME280;2300;51.874;8.430;2023-04-25T11:17:35;100466.41;;;11.49;54.84
4576;BME280;2300;51.874;8.430;2023-04-25T11:20:03;100463.28;;;11.69;55.15
4576;BME280;2300;51.874;8.430;2023-04-25T11:22:34;100466.94;;;11.35;55.14
4576;BME280;2300;51.874;8.430;2023-04-25T11:25:05;100468.31;;;10.85;55.44
4576;BME280;2300;51.874;8.430;2023-04-25T11:27:32;100474.03;;;10.84;56.01
4576;BME280;2300;51.874;8.430;2023-04-25T11:29:58;100468.78;;;10.48;55.77
4576;BME280;2300;51.874;8.430;2023-04-25T11:32:24;100474.25;;;10.24;57.36
4576;BME280;2300;51.874;8.430;2023-04-25T11:34:52;100470.00;;;10.10;57.45
4576;BME280;2300;51.874;8.430;2023-04-25T11:37:20;100474.16;;;10.31;59.06
4576;BME280;2300;51.874;8.430;2023-04-25T11:39:46;100481.81;;;10.64;58.75
4576;BME280;2300;51.874;8.430;2023-04-25T11:42:13;100481.31;;;11.13;56.55
4576;BME280;2300;51.874;8.430;2023-04-25T11:44:40;100481.44;;;11.18;55.08
4576;BME280;2300;51.874;8.430;2023-04-25T11:47:06;100492.38;;;11.42;54.57
4576;BME280;2300;51.874;8.430;2023-04-25T11:49:33;100495.00;;;11.37;55.27
4576;BME280;2300;51.874;8.430;2023-04-25T11:52:00;100493.16;;;11.02;54.20
4576;BME280;2300;51.874;8.430;2023-04-25T11:54:28;100490.53;;;11.07;56.20
4576;BME280;2300;51.874;8.430;2023-04-25T11:56:55;100500.06;;;10.70;54.24
4576;BME280;2300;51.874;8.430;2023-04-25T11:59:24;100478.09;;;10.47;54.81
4576;BME280;2300;51.874;8.430;2023-04-25T12:01:51;100472.59;;;10.35;55.33
4576;BME280;2300;51.874;8.430;2023-04-25T12:04:19;100497.94;;;10.72;55.89
4576;BME280;2300;51.874;8.430;2023-04-25T12:06:48;100499.47;;;10.79;56.47
4576;BME280;2300;51.874;8.430;2023-04-25T12:09:16;100517.53;;;10.87;55.22
4576;BME280;2300;51.874;8.430;2023-04-25T12:11:45;100511.06;;;10.70;56.23
4576;BME280;2300;51.874;8.430;2023-04-25T12:14:20;100503.91;;;10.80;54.40
4576;BME280;2300;51.874;8.430;2023-04-25T12:16:48;100483.84;;;10.68;54.42
4576;BME280;2300;51.874;8.430;2023-04-25T12:19:15;100520.28;;;10.87;55.33
4576;BME280;2300;51.874;8.430;2023-04-25T12:21:42;100513.69;;;11.11;56.46
4576;BME280;2300;51.874;8.430;2023-04-25T12:24:11;100487.25;;;11.34;56.43
4576;BME280;2300;51.874;8.430;2023-04-25T12:26:50;100504.81;;;11.33;54.53
4576;BME280;2300;51.874;8.430;2023-04-25T12:29:20;100517.28;;;11.12;54.52
4576;BME280;2300;51.874;8.430;2023-04-25T12:31:49;100511.44;;;11.08;55.06
4576;BME280;2300;51.874;8.430;2023-04-25T12:34:23;100512.63;;;11.01;56.94
4576;BME280;2300;51.874;8.430;2023-04-25T12:36:56;100508.81;;;10.67;55.49
4576;BME280;2300;51.874;8.430;2023-04-25T12:39:24;100527.09;;;10.96;53.94
4576;BME280;2300;51.874;8.430;2023-04-25T12:41:52;100528.53;;;10.87;53.82
4576;BME280;2300;51.874;8.430;2023-04-25T12:44:19;100520.75;;;11.07;54.37
4576;BME280;2300;51.874;8.430;2023-04-25T12:46:46;100522.78;;;11.23;54.49
4576;BME280;2300;51.874;8.430;2023-04-25T12:49:13;100525.97;;;11.32;54.76
4576;BME280;2300;51.874;8.430;2023-04-25T12:51:40;100508.84;;;11.53;55.53
4576;BME280;2300;51.874;8.430;2023-04-25T12:54:07;100505.91;;;11.83;54.35
4576;BME280;2300;51.874;8.430;2023-04-25T12:56:34;100518.91;;;11.88;54.91
4576;BME280;2300;51.874;8.430;2023-04-25T12:59:02;100521.22;;;12.36;55.48
4576;BME280;2300;51.874;8.430;2023-04-25T13:01:29;100516.06;;;12.73;53.76
4576;BME280;2300;51.874;8.430;2023-04-25T13:03:57;100508.91;;;12.10;52.38
4576;BME280;2300;51.874;8.430;2023-04-25T13:06:23;100516.88;;;11.95;53.55
4576;BME280;2300;51.874;8.430;2023-04-25T13:08:51;100510.16;;;12.19;51.86
4576;BME280;2300;51.874;8.430;2023-04-25T13:11:17;100505.50;;;11.63;52.36
4576;BME280;2300;51.874;8.430;2023-04-25T13:13:44;100512.31;;;12.00;53.69
4576;BME280;2300;51.874;8.430;2023-04-25T13:16:12;100521.31;;;12.41;53.67
4576;BME280;2300;51.874;8.430;2023-04-25T13:18:40;100527.75;;;12.63;53.99
4576;BME280;2300;51.874;8.430;2023-04-25T13:21:07;100515.06;;;12.62;51.31
4576;BME280;2300;51.874;8.430;2023-04-25T13:23:35;100524.56;;;12.54;51.21
4576;BME280;2300;51.874;8.430;2023-04-25T13:26:01;100488.50;;;12.39;50.09